Terminal Aerodrome Forecast
Issued by NWS

Home | Current Version | Previous Version | Text Only | Print | Product List | Glossary On
Versions: 1 2 3 4 5 6 7 8 9 10 11 12 13 14 15 16 17
000
FTUS45 KCYS 281120
TAFAIA
TAF
KAIA 281120Z 2812/2912 30005KT 6SM BR FEW002
      TEMPO 2812/2815 1/2SM FG VV002
     FM282100 21008KT P6SM VCTS BKN100CB
     FM290300 VRB05KT P6SM SCT100=

USA.gov is the U.S. government's official web portal to all federal, state and local government web resources and services.